sensor_id;sensor_type;location;lat;lon;timestamp;P1;durP1;ratioP1;P2;durP2;ratioP2
68273;SDS011;55104;47.356;19.448;2023-05-10T00:02:13;4.85;;;1.30;;
68273;SDS011;55104;47.356;19.448;2023-05-10T00:05:15;5.00;;;1.13;;
68273;SDS011;55104;47.356;19.448;2023-05-10T00:08:17;5.90;;;1.60;;
68273;SDS011;55104;47.356;19.448;2023-05-10T00:11:19;5.57;;;1.07;;
68273;SDS011;55104;47.356;19.448;2023-05-10T00:14:23;2.70;;;0.70;;
68273;SDS011;55104;47.356;19.448;2023-05-10T00:17:25;4.53;;;1.08;;
68273;SDS011;55104;47.356;19.448;2023-05-10T00:20:27;3.50;;;1.10;;
68273;SDS011;55104;47.356;19.448;2023-05-10T00:23:29;3.53;;;0.90;;
68273;SDS011;55104;47.356;19.448;2023-05-10T00:26:31;3.63;;;0.97;;
68273;SDS011;55104;47.356;19.448;2023-05-10T00:29:34;4.85;;;1.13;;
68273;SDS011;55104;47.356;19.448;2023-05-10T00:32:36;4.50;;;1.30;;
68273;SDS011;55104;47.356;19.448;2023-05-10T00:35:39;6.40;;;1.42;;
68273;SDS011;55104;47.356;19.448;2023-05-10T00:38:43;5.63;;;1.40;;
68273;SDS011;55104;47.356;19.448;2023-05-10T00:41:45;3.57;;;0.83;;
68273;SDS011;55104;47.356;19.448;2023-05-10T00:44:47;4.43;;;1.15;;
68273;SDS011;55104;47.356;19.448;2023-05-10T00:47:49;3.38;;;1.00;;
68273;SDS011;55104;47.356;19.448;2023-05-10T00:50:53;6.05;;;1.55;;
68273;SDS011;55104;47.356;19.448;2023-05-10T00:53:55;3.60;;;1.00;;
68273;SDS011;55104;47.356;19.448;2023-05-10T00:56:58;6.03;;;1.47;;
68273;SDS011;55104;47.356;19.448;2023-05-10T01:00:01;3.67;;;0.90;;
68273;SDS011;55104;47.356;19.448;2023-05-10T01:03:04;4.95;;;1.23;;
68273;SDS011;55104;47.356;19.448;2023-05-10T01:06:06;3.92;;;1.10;;
68273;SDS011;55104;47.356;19.448;2023-05-10T01:09:09;5.10;;;1.42;;
68273;SDS011;55104;47.356;19.448;2023-05-10T01:12:13;3.90;;;1.20;;
68273;SDS011;55104;47.356;19.448;2023-05-10T01:15:15;5.35;;;1.30;;
68273;SDS011;55104;47.356;19.448;2023-05-10T01:18:19;4.38;;;1.35;;
68273;SDS011;55104;47.356;19.448;2023-05-10T01:24:55;5.18;;;1.17;;
68273;SDS011;55104;47.356;19.448;2023-05-10T01:38:19;3.88;;;1.10;;
68273;SDS011;55104;47.356;19.448;2023-05-10T01:41:51;2.95;;;0.93;;
68273;SDS011;55104;47.356;19.448;2023-05-10T01:45:02;3.83;;;1.27;;
68273;SDS011;55104;47.356;19.448;2023-05-10T01:48:16;4.43;;;1.38;;
68273;SDS011;55104;47.356;19.448;2023-05-10T01:51:25;4.93;;;1.50;;
68273;SDS011;55104;47.356;19.448;2023-05-10T01:54:29;4.38;;;1.25;;
68273;SDS011;55104;47.356;19.448;2023-05-10T01:57:33;4.35;;;1.27;;
68273;SDS011;55104;47.356;19.448;2023-05-10T02:00:37;4.80;;;1.30;;
68273;SDS011;55104;47.356;19.448;2023-05-10T02:03:44;5.68;;;1.17;;
68273;SDS011;55104;47.356;19.448;2023-05-10T02:06:46;4.65;;;1.45;;
68273;SDS011;55104;47.356;19.448;2023-05-10T02:09:50;3.72;;;1.10;;
68273;SDS011;55104;47.356;19.448;2023-05-10T02:12:53;4.25;;;1.48;;
68273;SDS011;55104;47.356;19.448;2023-05-10T02:15:55;3.73;;;1.20;;
68273;SDS011;55104;47.356;19.448;2023-05-10T02:18:59;4.50;;;1.38;;
68273;SDS011;55104;47.356;19.448;2023-05-10T02:22:03;4.32;;;1.17;;
68273;SDS011;55104;47.356;19.448;2023-05-10T02:25:06;5.82;;;1.63;;
68273;SDS011;55104;47.356;19.448;2023-05-10T02:28:10;5.20;;;1.60;;
68273;SDS011;55104;47.356;19.448;2023-05-10T02:31:14;5.30;;;1.70;;
68273;SDS011;55104;47.356;19.448;2023-05-10T02:34:17;5.82;;;1.67;;
68273;SDS011;55104;47.356;19.448;2023-05-10T02:37:20;5.38;;;1.55;;
68273;SDS011;55104;47.356;19.448;2023-05-10T02:40:23;6.05;;;1.98;;
68273;SDS011;55104;47.356;19.448;2023-05-10T02:43:30;6.15;;;1.85;;
68273;SDS011;55104;47.356;19.448;2023-05-10T02:46:35;4.13;;;1.20;;
68273;SDS011;55104;47.356;19.448;2023-05-10T02:49:38;4.00;;;1.33;;
68273;SDS011;55104;47.356;19.448;2023-05-10T02:52:45;4.38;;;1.50;;
68273;SDS011;55104;47.356;19.448;2023-05-10T02:55:50;4.68;;;1.40;;
68273;SDS011;55104;47.356;19.448;2023-05-10T02:58:54;5.60;;;1.53;;
68273;SDS011;55104;47.356;19.448;2023-05-10T03:01:56;3.67;;;1.20;;
68273;SDS011;55104;47.356;19.448;2023-05-10T03:04:58;4.88;;;1.77;;
68273;SDS011;55104;47.356;19.448;2023-05-10T03:08:01;6.72;;;1.90;;
68273;SDS011;55104;47.356;19.448;2023-05-10T03:20:55;5.03;;;1.45;;
68273;SDS011;55104;47.356;19.448;2023-05-10T03:24:07;5.25;;;1.40;;
68273;SDS011;55104;47.356;19.448;2023-05-10T03:27:11;4.90;;;1.50;;
68273;SDS011;55104;47.356;19.448;2023-05-10T03:30:14;5.83;;;1.60;;
68273;SDS011;55104;47.356;19.448;2023-05-10T03:33:18;4.68;;;1.33;;
68273;SDS011;55104;47.356;19.448;2023-05-10T03:36:20;4.63;;;1.65;;
68273;SDS011;55104;47.356;19.448;2023-05-10T03:39:22;7.60;;;2.13;;
68273;SDS011;55104;47.356;19.448;2023-05-10T03:42:31;6.60;;;1.98;;
68273;SDS011;55104;47.356;19.448;2023-05-10T03:45:33;4.37;;;1.37;;
68273;SDS011;55104;47.356;19.448;2023-05-10T03:48:37;8.75;;;1.80;;
68273;SDS011;55104;47.356;19.448;2023-05-10T03:51:39;6.50;;;1.58;;
68273;SDS011;55104;47.356;19.448;2023-05-10T03:54:42;6.35;;;1.85;;
68273;SDS011;55104;47.356;19.448;2023-05-10T03:57:44;6.57;;;1.77;;
68273;SDS011;55104;47.356;19.448;2023-05-10T04:00:46;4.83;;;1.33;;
68273;SDS011;55104;47.356;19.448;2023-05-10T04:03:48;5.15;;;1.80;;
68273;SDS011;55104;47.356;19.448;2023-05-10T04:06:51;5.20;;;1.77;;
68273;SDS011;55104;47.356;19.448;2023-05-10T04:09:53;5.10;;;1.50;;
68273;SDS011;55104;47.356;19.448;2023-05-10T04:12:56;8.47;;;2.10;;
68273;SDS011;55104;47.356;19.448;2023-05-10T04:15:58;6.65;;;1.70;;
68273;SDS011;55104;47.356;19.448;2023-05-10T04:19:00;6.40;;;1.80;;
68273;SDS011;55104;47.356;19.448;2023-05-10T04:22:02;6.05;;;1.75;;
68273;SDS011;55104;47.356;19.448;2023-05-10T04:25:05;5.63;;;1.73;;
68273;SDS011;55104;47.356;19.448;2023-05-10T04:28:08;6.20;;;1.90;;
68273;SDS011;55104;47.356;19.448;2023-05-10T04:31:10;6.15;;;1.90;;
68273;SDS011;55104;47.356;19.448;2023-05-10T04:34:12;6.10;;;1.92;;
68273;SDS011;55104;47.356;19.448;2023-05-10T04:37:14;5.13;;;1.52;;
68273;SDS011;55104;47.356;19.448;2023-05-10T04:40:16;6.30;;;1.48;;
68273;SDS011;55104;47.356;19.448;2023-05-10T04:43:19;4.27;;;1.50;;
68273;SDS011;55104;47.356;19.448;2023-05-10T04:46:21;4.65;;;1.70;;
68273;SDS011;55104;47.356;19.448;2023-05-10T04:49:23;6.13;;;1.77;;
68273;SDS011;55104;47.356;19.448;2023-05-10T04:52:25;5.80;;;1.88;;
68273;SDS011;55104;47.356;19.448;2023-05-10T04:55:27;4.35;;;1.38;;
68273;SDS011;55104;47.356;19.448;2023-05-10T04:58:30;4.83;;;1.80;;
68273;SDS011;55104;47.356;19.448;2023-05-10T05:01:32;5.90;;;1.90;;
68273;SDS011;55104;47.356;19.448;2023-05-10T05:04:34;8.05;;;2.17;;
68273;SDS011;55104;47.356;19.448;2023-05-10T05:07:36;5.15;;;1.67;;
68273;SDS011;55104;47.356;19.448;2023-05-10T05:10:39;4.40;;;1.33;;
68273;SDS011;55104;47.356;19.448;2023-05-10T05:13:41;7.10;;;2.05;;
68273;SDS011;55104;47.356;19.448;2023-05-10T05:16:43;10.80;;;2.05;;
68273;SDS011;55104;47.356;19.448;2023-05-10T05:19:46;7.30;;;2.20;;
68273;SDS011;55104;47.356;19.448;2023-05-10T05:22:48;5.15;;;1.38;;
68273;SDS011;55104;47.356;19.448;2023-05-10T05:25:54;5.30;;;2.23;;
68273;SDS011;55104;47.356;19.448;2023-05-10T05:28:56;4.95;;;1.63;;
68273;SDS011;55104;47.356;19.448;2023-05-10T05:31:58;4.95;;;1.17;;
68273;SDS011;55104;47.356;19.448;2023-05-10T05:35:00;8.93;;;2.50;;
68273;SDS011;55104;47.356;19.448;2023-05-10T05:38:02;5.60;;;1.85;;
68273;SDS011;55104;47.356;19.448;2023-05-10T05:41:04;8.63;;;2.43;;
68273;SDS011;55104;47.356;19.448;2023-05-10T05:44:07;6.30;;;1.80;;
68273;SDS011;55104;47.356;19.448;2023-05-10T05:47:09;5.93;;;1.55;;
68273;SDS011;55104;47.356;19.448;2023-05-10T05:50:11;6.13;;;1.80;;
68273;SDS011;55104;47.356;19.448;2023-05-10T05:53:13;4.85;;;1.80;;
68273;SDS011;55104;47.356;19.448;2023-05-10T05:56:15;5.77;;;2.07;;
68273;SDS011;55104;47.356;19.448;2023-05-10T05:59:17;4.90;;;1.67;;
68273;SDS011;55104;47.356;19.448;2023-05-10T06:02:19;5.28;;;2.08;;
68273;SDS011;55104;47.356;19.448;2023-05-10T06:05:21;7.18;;;2.25;;
68273;SDS011;55104;47.356;19.448;2023-05-10T06:08:23;8.07;;;2.22;;
68273;SDS011;55104;47.356;19.448;2023-05-10T06:11:25;5.80;;;1.70;;
68273;SDS011;55104;47.356;19.448;2023-05-10T06:14:27;5.18;;;1.75;;
68273;SDS011;55104;47.356;19.448;2023-05-10T06:17:29;5.03;;;1.95;;
68273;SDS011;55104;47.356;19.448;2023-05-10T06:20:31;5.72;;;2.08;;
68273;SDS011;55104;47.356;19.448;2023-05-10T06:23:33;7.47;;;2.50;;
68273;SDS011;55104;47.356;19.448;2023-05-10T06:26:35;5.43;;;1.90;;
68273;SDS011;55104;47.356;19.448;2023-05-10T06:29:37;5.63;;;2.15;;
68273;SDS011;55104;47.356;19.448;2023-05-10T06:32:39;5.55;;;1.77;;
68273;SDS011;55104;47.356;19.448;2023-05-10T06:35:42;6.15;;;2.03;;
68273;SDS011;55104;47.356;19.448;2023-05-10T06:38:44;6.40;;;1.88;;
68273;SDS011;55104;47.356;19.448;2023-05-10T06:41:46;5.07;;;1.53;;
68273;SDS011;55104;47.356;19.448;2023-05-10T06:44:48;5.50;;;1.83;;
68273;SDS011;55104;47.356;19.448;2023-05-10T06:47:50;6.32;;;2.08;;
68273;SDS011;55104;47.356;19.448;2023-05-10T06:50:52;5.13;;;1.60;;
68273;SDS011;55104;47.356;19.448;2023-05-10T06:54:14;5.72;;;1.75;;
68273;SDS011;55104;47.356;19.448;2023-05-10T06:57:16;5.80;;;1.80;;
68273;SDS011;55104;47.356;19.448;2023-05-10T07:00:31;6.50;;;1.67;;
68273;SDS011;55104;47.356;19.448;2023-05-10T07:03:33;5.80;;;1.80;;
68273;SDS011;55104;47.356;19.448;2023-05-10T07:06:35;5.30;;;1.90;;
68273;SDS011;55104;47.356;19.448;2023-05-10T07:09:37;5.22;;;1.80;;
68273;SDS011;55104;47.356;19.448;2023-05-10T07:12:39;5.20;;;2.00;;
68273;SDS011;55104;47.356;19.448;2023-05-10T07:15:41;11.70;;;2.05;;
68273;SDS011;55104;47.356;19.448;2023-05-10T07:18:43;6.47;;;1.92;;
68273;SDS011;55104;47.356;19.448;2023-05-10T07:21:46;5.22;;;1.40;;
68273;SDS011;55104;47.356;19.448;2023-05-10T07:24:48;5.78;;;1.95;;
68273;SDS011;55104;47.356;19.448;2023-05-10T07:27:50;6.83;;;1.87;;
68273;SDS011;55104;47.356;19.448;2023-05-10T07:30:52;5.85;;;1.80;;
68273;SDS011;55104;47.356;19.448;2023-05-10T07:33:54;5.93;;;1.98;;
68273;SDS011;55104;47.356;19.448;2023-05-10T07:36:57;6.13;;;2.10;;
68273;SDS011;55104;47.356;19.448;2023-05-10T07:40:00;7.63;;;2.30;;
68273;SDS011;55104;47.356;19.448;2023-05-10T07:43:02;5.20;;;1.57;;
68273;SDS011;55104;47.356;19.448;2023-05-10T07:46:04;6.03;;;1.73;;
68273;SDS011;55104;47.356;19.448;2023-05-10T07:49:06;5.70;;;1.80;;
68273;SDS011;55104;47.356;19.448;2023-05-10T07:52:09;5.18;;;1.70;;
68273;SDS011;55104;47.356;19.448;2023-05-10T07:55:11;4.78;;;1.60;;
68273;SDS011;55104;47.356;19.448;2023-05-10T07:58:13;5.10;;;1.40;;
68273;SDS011;55104;47.356;19.448;2023-05-10T08:01:15;5.57;;;1.77;;
68273;SDS011;55104;47.356;19.448;2023-05-10T08:04:17;5.65;;;1.70;;
68273;SDS011;55104;47.356;19.448;2023-05-10T08:07:19;5.88;;;1.88;;
68273;SDS011;55104;47.356;19.448;2023-05-10T08:10:21;4.60;;;1.63;;
68273;SDS011;55104;47.356;19.448;2023-05-10T08:13:23;8.67;;;2.40;;
68273;SDS011;55104;47.356;19.448;2023-05-10T08:16:25;4.82;;;1.65;;
68273;SDS011;55104;47.356;19.448;2023-05-10T08:19:28;6.03;;;1.92;;
68273;SDS011;55104;47.356;19.448;2023-05-10T08:22:29;5.68;;;1.80;;
68273;SDS011;55104;47.356;19.448;2023-05-10T08:25:31;5.38;;;1.77;;
68273;SDS011;55104;47.356;19.448;2023-05-10T08:28:34;4.73;;;1.60;;
68273;SDS011;55104;47.356;19.448;2023-05-10T08:31:35;5.82;;;1.85;;
68273;SDS011;55104;47.356;19.448;2023-05-10T08:34:38;4.78;;;1.58;;
68273;SDS011;55104;47.356;19.448;2023-05-10T08:37:40;5.63;;;1.75;;
68273;SDS011;55104;47.356;19.448;2023-05-10T08:40:42;5.28;;;1.98;;
68273;SDS011;55104;47.356;19.448;2023-05-10T08:43:45;15.03;;;2.80;;
68273;SDS011;55104;47.356;19.448;2023-05-10T08:46:47;5.22;;;1.60;;
68273;SDS011;55104;47.356;19.448;2023-05-10T08:49:54;3.97;;;1.63;;
68273;SDS011;55104;47.356;19.448;2023-05-10T08:52:59;4.65;;;1.70;;
68273;SDS011;55104;47.356;19.448;2023-05-10T08:56:05;4.70;;;1.33;;
68273;SDS011;55104;47.356;19.448;2023-05-10T08:59:07;6.23;;;1.47;;
68273;SDS011;55104;47.356;19.448;2023-05-10T09:02:09;5.57;;;1.70;;
68273;SDS011;55104;47.356;19.448;2023-05-10T09:05:13;3.63;;;1.10;;
68273;SDS011;55104;47.356;19.448;2023-05-10T09:08:17;4.70;;;1.50;;
68273;SDS011;55104;47.356;19.448;2023-05-10T09:11:20;5.57;;;1.85;;
68273;SDS011;55104;47.356;19.448;2023-05-10T09:14:23;4.57;;;1.30;;
68273;SDS011;55104;47.356;19.448;2023-05-10T09:17:26;4.18;;;1.25;;
68273;SDS011;55104;47.356;19.448;2023-05-10T09:20:30;4.03;;;1.27;;
68273;SDS011;55104;47.356;19.448;2023-05-10T09:23:32;10.40;;;1.70;;
68273;SDS011;55104;47.356;19.448;2023-05-10T09:26:35;4.15;;;1.35;;
68273;SDS011;55104;47.356;19.448;2023-05-10T09:29:46;4.67;;;1.37;;
68273;SDS011;55104;47.356;19.448;2023-05-10T09:32:48;7.20;;;1.25;;
68273;SDS011;55104;47.356;19.448;2023-05-10T09:35:52;5.93;;;1.63;;
68273;SDS011;55104;47.356;19.448;2023-05-10T09:38:54;4.55;;;1.25;;
68273;SDS011;55104;47.356;19.448;2023-05-10T09:41:56;4.13;;;1.48;;
68273;SDS011;55104;47.356;19.448;2023-05-10T09:45:04;4.83;;;1.20;;
68273;SDS011;55104;47.356;19.448;2023-05-10T09:48:06;5.28;;;1.50;;
68273;SDS011;55104;47.356;19.448;2023-05-10T09:51:08;5.15;;;1.40;;
68273;SDS011;55104;47.356;19.448;2023-05-10T09:54:11;4.45;;;1.52;;
68273;SDS011;55104;47.356;19.448;2023-05-10T09:57:19;3.78;;;1.13;;
68273;SDS011;55104;47.356;19.448;2023-05-10T10:00:23;4.53;;;1.30;;
68273;SDS011;55104;47.356;19.448;2023-05-10T10:03:25;3.88;;;1.10;;
68273;SDS011;55104;47.356;19.448;2023-05-10T10:06:34;3.33;;;1.15;;
68273;SDS011;55104;47.356;19.448;2023-05-10T10:09:38;3.72;;;1.15;;
68273;SDS011;55104;47.356;19.448;2023-05-10T10:12:41;3.78;;;1.23;;
68273;SDS011;55104;47.356;19.448;2023-05-10T10:15:43;3.60;;;1.10;;
68273;SDS011;55104;47.356;19.448;2023-05-10T10:18:52;4.95;;;1.02;;
68273;SDS011;55104;47.356;19.448;2023-05-10T10:21:55;3.65;;;1.15;;
68273;SDS011;55104;47.356;19.448;2023-05-10T10:24:57;2.80;;;0.88;;
68273;SDS011;55104;47.356;19.448;2023-05-10T10:28:48;5.03;;;1.00;;
68273;SDS011;55104;47.356;19.448;2023-05-10T10:34:38;3.65;;;0.80;;
68273;SDS011;55104;47.356;19.448;2023-05-10T10:37:44;3.78;;;0.98;;
68273;SDS011;55104;47.356;19.448;2023-05-10T10:40:47;4.90;;;1.00;;
68273;SDS011;55104;47.356;19.448;2023-05-10T10:43:50;3.92;;;1.30;;
68273;SDS011;55104;47.356;19.448;2023-05-10T10:47:24;3.97;;;1.10;;
68273;SDS011;55104;47.356;19.448;2023-05-10T10:50:26;2.83;;;0.90;;
68273;SDS011;55104;47.356;19.448;2023-05-10T10:53:28;3.50;;;0.80;;
68273;SDS011;55104;47.356;19.448;2023-05-10T10:56:32;3.50;;;0.88;;
68273;SDS011;55104;47.356;19.448;2023-05-10T10:59:41;4.50;;;1.15;;
68273;SDS011;55104;47.356;19.448;2023-05-10T11:02:45;3.57;;;1.00;;
68273;SDS011;55104;47.356;19.448;2023-05-10T11:05:53;3.35;;;1.00;;
68273;SDS011;55104;47.356;19.448;2023-05-10T11:09:09;3.05;;;0.95;;
68273;SDS011;55104;47.356;19.448;2023-05-10T11:12:13;4.22;;;1.13;;
68273;SDS011;55104;47.356;19.448;2023-05-10T11:15:15;3.58;;;1.00;;
68273;SDS011;55104;47.356;19.448;2023-05-10T11:21:20;3.55;;;1.15;;
68273;SDS011;55104;47.356;19.448;2023-05-10T11:24:22;4.30;;;1.27;;
68273;SDS011;55104;47.356;19.448;2023-05-10T11:27:28;6.03;;;0.90;;
68273;SDS011;55104;47.356;19.448;2023-05-10T11:30:31;3.78;;;1.10;;
68273;SDS011;55104;47.356;19.448;2023-05-10T11:33:42;3.13;;;0.93;;
68273;SDS011;55104;47.356;19.448;2023-05-10T11:36:55;2.90;;;0.85;;
68273;SDS011;55104;47.356;19.448;2023-05-10T11:39:58;4.03;;;0.90;;
68273;SDS011;55104;47.356;19.448;2023-05-10T11:43:01;2.88;;;0.75;;
68273;SDS011;55104;47.356;19.448;2023-05-10T11:46:04;3.75;;;0.63;;
68273;SDS011;55104;47.356;19.448;2023-05-10T11:49:08;3.13;;;0.70;;
68273;SDS011;55104;47.356;19.448;2023-05-10T11:52:10;3.00;;;0.60;;
68273;SDS011;55104;47.356;19.448;2023-05-10T11:55:12;2.38;;;0.63;;
68273;SDS011;55104;47.356;19.448;2023-05-10T11:58:14;3.05;;;0.80;;
68273;SDS011;55104;47.356;19.448;2023-05-10T12:01:16;2.83;;;0.80;;
68273;SDS011;55104;47.356;19.448;2023-05-10T12:04:19;2.93;;;0.87;;
68273;SDS011;55104;47.356;19.448;2023-05-10T12:07:21;2.90;;;0.63;;
68273;SDS011;55104;47.356;19.448;2023-05-10T12:10:25;2.00;;;0.60;;
68273;SDS011;55104;47.356;19.448;2023-05-10T12:13:28;2.20;;;0.60;;
68273;SDS011;55104;47.356;19.448;2023-05-10T12:16:30;2.35;;;0.70;;
68273;SDS011;55104;47.356;19.448;2023-05-10T12:19:41;2.53;;;0.73;;
68273;SDS011;55104;47.356;19.448;2023-05-10T12:22:52;2.10;;;0.70;;
68273;SDS011;55104;47.356;19.448;2023-05-10T12:26:01;3.00;;;0.93;;
68273;SDS011;55104;47.356;19.448;2023-05-10T12:32:15;2.80;;;0.98;;
68273;SDS011;55104;47.356;19.448;2023-05-10T12:35:17;4.07;;;0.90;;
68273;SDS011;55104;47.356;19.448;2023-05-10T12:38:26;3.58;;;0.85;;
68273;SDS011;55104;47.356;19.448;2023-05-10T12:41:39;4.00;;;0.80;;
68273;SDS011;55104;47.356;19.448;2023-05-10T12:44:44;1.77;;;0.60;;
68273;SDS011;55104;47.356;19.448;2023-05-10T12:47:46;3.20;;;0.70;;
68273;SDS011;55104;47.356;19.448;2023-05-10T12:50:48;2.63;;;0.60;;
68273;SDS011;55104;47.356;19.448;2023-05-10T12:53:50;1.95;;;0.60;;
68273;SDS011;55104;47.356;19.448;2023-05-10T12:56:52;2.83;;;0.82;;
68273;SDS011;55104;47.356;19.448;2023-05-10T12:59:54;4.63;;;0.73;;
68273;SDS011;55104;47.356;19.448;2023-05-10T13:02:56;2.95;;;0.90;;
68273;SDS011;55104;47.356;19.448;2023-05-10T13:05:58;2.33;;;0.63;;
68273;SDS011;55104;47.356;19.448;2023-05-10T13:09:00;2.63;;;0.70;;
68273;SDS011;55104;47.356;19.448;2023-05-10T13:12:02;2.25;;;0.68;;
68273;SDS011;55104;47.356;19.448;2023-05-10T13:15:05;3.08;;;0.85;;
68273;SDS011;55104;47.356;19.448;2023-05-10T13:18:08;3.45;;;0.88;;
68273;SDS011;55104;47.356;19.448;2023-05-10T13:21:10;2.20;;;0.70;;
68273;SDS011;55104;47.356;19.448;2023-05-10T13:24:12;3.17;;;0.93;;
68273;SDS011;55104;47.356;19.448;2023-05-10T13:27:15;3.05;;;0.82;;
68273;SDS011;55104;47.356;19.448;2023-05-10T13:30:17;4.00;;;0.90;;
68273;SDS011;55104;47.356;19.448;2023-05-10T13:33:19;2.78;;;0.80;;
68273;SDS011;55104;47.356;19.448;2023-05-10T13:36:21;3.07;;;1.00;;
68273;SDS011;55104;47.356;19.448;2023-05-10T13:39:24;3.70;;;0.90;;
68273;SDS011;55104;47.356;19.448;2023-05-10T13:42:26;5.20;;;0.90;;
68273;SDS011;55104;47.356;19.448;2023-05-10T13:45:28;3.40;;;0.80;;
68273;SDS011;55104;47.356;19.448;2023-05-10T13:48:30;2.30;;;0.70;;
68273;SDS011;55104;47.356;19.448;2023-05-10T13:51:33;2.63;;;0.63;;
68273;SDS011;55104;47.356;19.448;2023-05-10T13:54:36;2.20;;;0.52;;
68273;SDS011;55104;47.356;19.448;2023-05-10T13:57:39;1.90;;;0.52;;
68273;SDS011;55104;47.356;19.448;2023-05-10T14:00:41;1.98;;;0.65;;
68273;SDS011;55104;47.356;19.448;2023-05-10T14:03:43;2.40;;;0.70;;
68273;SDS011;55104;47.356;19.448;2023-05-10T14:06:45;2.80;;;0.60;;
68273;SDS011;55104;47.356;19.448;2023-05-10T14:09:47;1.55;;;0.50;;
68273;SDS011;55104;47.356;19.448;2023-05-10T14:12:50;2.88;;;0.70;;
68273;SDS011;55104;47.356;19.448;2023-05-10T14:15:52;2.53;;;0.75;;
68273;SDS011;55104;47.356;19.448;2023-05-10T14:18:55;2.75;;;0.73;;
68273;SDS011;55104;47.356;19.448;2023-05-10T14:21:57;4.37;;;0.77;;
68273;SDS011;55104;47.356;19.448;2023-05-10T14:24:59;2.92;;;0.80;;
68273;SDS011;55104;47.356;19.448;2023-05-10T14:28:02;6.18;;;0.88;;
68273;SDS011;55104;47.356;19.448;2023-05-10T14:31:04;1.60;;;0.50;;
68273;SDS011;55104;47.356;19.448;2023-05-10T14:34:07;2.17;;;0.70;;
68273;SDS011;55104;47.356;19.448;2023-05-10T14:37:09;3.80;;;0.50;;
68273;SDS011;55104;47.356;19.448;2023-05-10T14:40:12;1.73;;;0.40;;
68273;SDS011;55104;47.356;19.448;2023-05-10T14:43:16;2.55;;;0.63;;
68273;SDS011;55104;47.356;19.448;2023-05-10T14:46:18;2.08;;;0.63;;
68273;SDS011;55104;47.356;19.448;2023-05-10T14:49:21;2.47;;;0.70;;
68273;SDS011;55104;47.356;19.448;2023-05-10T14:52:24;2.07;;;0.53;;
68273;SDS011;55104;47.356;19.448;2023-05-10T14:55:26;3.10;;;0.60;;
68273;SDS011;55104;47.356;19.448;2023-05-10T14:58:28;3.58;;;0.73;;
68273;SDS011;55104;47.356;19.448;2023-05-10T15:01:31;3.90;;;0.90;;
68273;SDS011;55104;47.356;19.448;2023-05-10T15:04:35;3.50;;;0.60;;
68273;SDS011;55104;47.356;19.448;2023-05-10T15:07:37;2.57;;;0.63;;
68273;SDS011;55104;47.356;19.448;2023-05-10T15:10:39;2.10;;;0.60;;
68273;SDS011;55104;47.356;19.448;2023-05-10T15:13:41;2.28;;;0.70;;
68273;SDS011;55104;47.356;19.448;2023-05-10T15:16:43;4.10;;;0.90;;
68273;SDS011;55104;47.356;19.448;2023-05-10T15:19:46;3.00;;;0.50;;
68273;SDS011;55104;47.356;19.448;2023-05-10T15:22:48;3.63;;;0.90;;
68273;SDS011;55104;47.356;19.448;2023-05-10T15:25:50;3.85;;;0.82;;
68273;SDS011;55104;47.356;19.448;2023-05-10T15:28:53;3.10;;;0.80;;
68273;SDS011;55104;47.356;19.448;2023-05-10T15:31:57;3.50;;;1.00;;
68273;SDS011;55104;47.356;19.448;2023-05-10T15:34:59;3.80;;;1.00;;
68273;SDS011;55104;47.356;19.448;2023-05-10T15:38:01;3.20;;;0.87;;
68273;SDS011;55104;47.356;19.448;2023-05-10T15:41:03;2.55;;;0.85;;
68273;SDS011;55104;47.356;19.448;2023-05-10T15:44:05;3.83;;;0.90;;
68273;SDS011;55104;47.356;19.448;2023-05-10T15:47:07;2.00;;;0.60;;
68273;SDS011;55104;47.356;19.448;2023-05-10T15:50:09;2.25;;;0.55;;
68273;SDS011;55104;47.356;19.448;2023-05-10T15:53:11;5.23;;;0.90;;
68273;SDS011;55104;47.356;19.448;2023-05-10T15:56:13;3.55;;;1.02;;
68273;SDS011;55104;47.356;19.448;2023-05-10T15:59:16;3.42;;;0.95;;
68273;SDS011;55104;47.356;19.448;2023-05-10T16:02:18;4.05;;;1.00;;
68273;SDS011;55104;47.356;19.448;2023-05-10T16:05:20;5.10;;;0.85;;
68273;SDS011;55104;47.356;19.448;2023-05-10T16:08:22;2.83;;;0.87;;
68273;SDS011;55104;47.356;19.448;2023-05-10T16:11:24;2.63;;;0.80;;
68273;SDS011;55104;47.356;19.448;2023-05-10T16:14:26;4.97;;;0.98;;
68273;SDS011;55104;47.356;19.448;2023-05-10T16:17:28;3.65;;;0.82;;
68273;SDS011;55104;47.356;19.448;2023-05-10T16:20:31;2.97;;;0.80;;
68273;SDS011;55104;47.356;19.448;2023-05-10T16:23:33;2.50;;;0.70;;
68273;SDS011;55104;47.356;19.448;2023-05-10T16:26:35;3.10;;;0.70;;
68273;SDS011;55104;47.356;19.448;2023-05-10T16:29:41;4.65;;;0.80;;
68273;SDS011;55104;47.356;19.448;2023-05-10T16:32:43;3.08;;;0.65;;
68273;SDS011;55104;47.356;19.448;2023-05-10T16:35:45;3.92;;;0.80;;
68273;SDS011;55104;47.356;19.448;2023-05-10T16:38:47;4.03;;;0.80;;
68273;SDS011;55104;47.356;19.448;2023-05-10T16:41:49;7.47;;;1.13;;
68273;SDS011;55104;47.356;19.448;2023-05-10T16:44:52;4.32;;;1.00;;
68273;SDS011;55104;47.356;19.448;2023-05-10T16:47:54;3.80;;;0.98;;
68273;SDS011;55104;47.356;19.448;2023-05-10T16:50:57;4.25;;;1.10;;
68273;SDS011;55104;47.356;19.448;2023-05-10T16:53:59;3.63;;;1.10;;
68273;SDS011;55104;47.356;19.448;2023-05-10T16:57:01;3.83;;;0.90;;
68273;SDS011;55104;47.356;19.448;2023-05-10T17:00:04;2.40;;;0.80;;
68273;SDS011;55104;47.356;19.448;2023-05-10T17:03:06;3.90;;;1.08;;
68273;SDS011;55104;47.356;19.448;2023-05-10T17:06:08;2.85;;;0.93;;
68273;SDS011;55104;47.356;19.448;2023-05-10T17:09:11;3.53;;;0.80;;
68273;SDS011;55104;47.356;19.448;2023-05-10T17:12:13;2.67;;;0.80;;
68273;SDS011;55104;47.356;19.448;2023-05-10T17:15:15;3.22;;;0.90;;
68273;SDS011;55104;47.356;19.448;2023-05-10T17:18:20;5.60;;;0.85;;
68273;SDS011;55104;47.356;19.448;2023-05-10T17:21:22;3.95;;;1.15;;
68273;SDS011;55104;47.356;19.448;2023-05-10T17:24:24;3.90;;;0.97;;
68273;SDS011;55104;47.356;19.448;2023-05-10T17:27:30;5.35;;;1.02;;
68273;SDS011;55104;47.356;19.448;2023-05-10T17:30:32;3.72;;;1.00;;
68273;SDS011;55104;47.356;19.448;2023-05-10T17:33:34;4.32;;;0.90;;
68273;SDS011;55104;47.356;19.448;2023-05-10T17:36:36;3.17;;;0.80;;
68273;SDS011;55104;47.356;19.448;2023-05-10T17:39:38;2.73;;;0.70;;
68273;SDS011;55104;47.356;19.448;2023-05-10T17:42:40;3.78;;;1.10;;
68273;SDS011;55104;47.356;19.448;2023-05-10T17:45:45;3.97;;;0.98;;
68273;SDS011;55104;47.356;19.448;2023-05-10T17:48:48;3.83;;;0.90;;
68273;SDS011;55104;47.356;19.448;2023-05-10T17:51:51;3.55;;;0.90;;
68273;SDS011;55104;47.356;19.448;2023-05-10T17:54:53;4.77;;;1.20;;
68273;SDS011;55104;47.356;19.448;2023-05-10T17:57:55;3.75;;;1.20;;
68273;SDS011;55104;47.356;19.448;2023-05-10T18:01:00;3.78;;;1.08;;
68273;SDS011;55104;47.356;19.448;2023-05-10T18:04:02;3.20;;;0.70;;
68273;SDS011;55104;47.356;19.448;2023-05-10T18:07:05;4.63;;;1.25;;
68273;SDS011;55104;47.356;19.448;2023-05-10T18:10:09;3.43;;;0.97;;
68273;SDS011;55104;47.356;19.448;2023-05-10T18:13:11;3.67;;;1.05;;
68273;SDS011;55104;47.356;19.448;2023-05-10T18:16:13;4.03;;;0.80;;
68273;SDS011;55104;47.356;19.448;2023-05-10T18:19:16;3.42;;;0.90;;
68273;SDS011;55104;47.356;19.448;2023-05-10T18:22:18;3.00;;;0.90;;
68273;SDS011;55104;47.356;19.448;2023-05-10T18:25:20;2.70;;;0.70;;
68273;SDS011;55104;47.356;19.448;2023-05-10T18:28:22;2.70;;;0.70;;
68273;SDS011;55104;47.356;19.448;2023-05-10T18:31:25;2.78;;;0.55;;
68273;SDS011;55104;47.356;19.448;2023-05-10T18:34:28;3.35;;;1.10;;
68273;SDS011;55104;47.356;19.448;2023-05-10T18:37:30;7.18;;;1.05;;
68273;SDS011;55104;47.356;19.448;2023-05-10T18:40:33;4.03;;;1.03;;